In Rescue
 
Open Full Screen Window  High Contrast Mode
Wind Gusting 23 knots
17
March 01, 2024 2:08 PM CST
Weather Information
Wind Direction
  200 °
Wind Speed
  17 kt (20 mph)
Wind Gust
  23 kt (26 mph)
Altimeter
29.71 in
Visibility
---
Temperature
14° C
57° F
Dewpoint
00° C
32° F
Humidity
38%
Sky Condition
Clear

METAR KLYV 012008Z AUTO 20017G23KT CLR 14/00 A2971 RMK AO2 PWINO

FAA Disclaimer: The data displayed is for advisory purposes only and is not to be used for flight planning or operations.